CYYG

Charlottetown Airport

Charlottetown, Prince Edward Island, Canada
METAR CYYG 161000Z 34003KT 15SM SCT065 OVC100 M08/M14 A2971 RMK SC4AC4 SLP067
Observed Flight Rules
Dec-16 @ 10:00 UTC (an hour ago) Visual Flight Rules
Wind Visibility Clouds
340° at 3 knots 15 miles
  • Scattered at 6,500' AGL
  • Overcast at 10,000' AGL
Temperatures Readings
Current -8°C / 18°F
Dewpoint -14°C / 7°F
Humidity 62%
Altimeter 29.71" Hg
Pressure 1006.7 hPa
Elevation 54
METAR CYYG 161000Z 34003KT 15SM SCT065 OVC100 M08/M14 A2971 RMK SC4AC4 SLP067
Observed Flight Rules
Dec-16 @ 10:00 UTC
(an hour ago)
VFR
Wind Visibility
340° at 3 knots 15 miles
Clouds
  • Scattered at 6,500' AGL
  • Overcast at 10,000' AGL
Temperature Dewpoint
-8°C / 18°F -14°C / 7°F
Humidity Altimeter Pressure
62% 29.71" Hg 1006.7 hPa